createdAt,value
2017-06-28T00:00:25.405Z,18
2017-06-28T00:00:53.552Z,18.09
2017-06-28T00:01:21.598Z,18.02
2017-06-28T00:01:49.542Z,18
2017-06-28T00:02:17.689Z,17.98
2017-06-28T00:02:45.824Z,18.06
2017-06-28T00:03:13.875Z,18.06
2017-06-28T00:03:41.998Z,18.12
2017-06-28T00:04:10.152Z,18.08
2017-06-28T00:04:38.167Z,18.12
2017-06-28T00:05:06.134Z,18.06
2017-06-28T00:05:34.273Z,18.13
2017-06-28T00:06:02.344Z,18.16
2017-06-28T00:06:30.480Z,18.12
2017-06-28T00:06:58.589Z,18.06
2017-06-28T00:07:26.702Z,18.05
2017-06-28T00:07:54.760Z,18.03
2017-06-28T00:08:23.001Z,18.05
2017-06-28T00:08:51.141Z,18.08
2017-06-28T00:09:19.267Z,18.11
2017-06-28T00:09:47.311Z,18.02
2017-06-28T00:10:15.470Z,18.02
2017-06-28T00:10:43.430Z,17.94
2017-06-28T00:11:11.573Z,18
2017-06-28T00:11:39.699Z,18.02
2017-06-28T00:12:07.576Z,17.94
2017-06-28T00:12:35.720Z,18.06
2017-06-28T00:13:03.997Z,18
2017-06-28T00:13:32.125Z,17.86
2017-06-28T00:14:00.269Z,17.95
2017-06-28T00:14:28.326Z,17.97
2017-06-28T00:14:56.314Z,17.97
2017-06-28T00:15:24.423Z,17.88
2017-06-28T00:15:52.577Z,17.95
2017-06-28T00:16:20.691Z,17.94
2017-06-28T00:16:48.734Z,17.97
2017-06-28T00:17:16.808Z,17.91
2017-06-28T00:17:44.859Z,17.98
2017-06-28T00:18:13.038Z,17.9
2017-06-28T00:18:41.149Z,17.94
2017-06-28T00:19:09.217Z,17.98
2017-06-28T00:19:37.261Z,17.93
2017-06-28T00:20:05.409Z,17.94
2017-06-28T00:20:33.553Z,17.93
2017-06-28T00:21:01.603Z,17.9
2017-06-28T00:21:29.663Z,17.88
2017-06-28T00:21:57.795Z,17.86
2017-06-28T00:22:25.826Z,17.86
2017-06-28T00:22:53.928Z,17.84
2017-06-28T00:23:21.976Z,17.87
2017-06-28T00:23:50.116Z,17.78
2017-06-28T00:24:18.141Z,17.82
2017-06-28T00:24:46.309Z,17.86
2017-06-28T00:25:14.448Z,17.8
2017-06-28T00:25:42.400Z,17.78
2017-06-28T00:26:10.565Z,17.76
2017-06-28T00:26:38.744Z,17.76
2017-06-28T00:27:06.895Z,17.75
2017-06-28T00:27:35.031Z,17.76
2017-06-28T00:28:03.176Z,17.71
2017-06-28T00:28:31.314Z,17.69
2017-06-28T00:28:59.382Z,17.71
2017-06-28T00:29:27.500Z,17.65
2017-06-28T00:29:55.630Z,17.63
2017-06-28T00:30:23.766Z,17.57
2017-06-28T00:30:51.924Z,17.6
2017-06-28T00:31:20.077Z,17.54
2017-06-28T00:31:48.209Z,17.57
2017-06-28T00:32:16.175Z,17.57
2017-06-28T00:32:44.319Z,17.6
2017-06-28T00:33:12.460Z,17.63
2017-06-28T00:33:40.601Z,17.6
2017-06-28T00:34:08.657Z,17.66
2017-06-28T00:34:36.789Z,17.65
2017-06-28T00:35:04.925Z,17.53
2017-06-28T00:35:33.064Z,17.54
2017-06-28T00:36:01.011Z,17.52
2017-06-28T00:36:29.161Z,17.54
2017-06-28T00:36:57.290Z,17.57
2017-06-28T00:37:25.426Z,17.63
2017-06-28T00:37:53.559Z,17.5
2017-06-28T00:38:21.611Z,17.56
2017-06-28T00:38:49.663Z,17.57
2017-06-28T00:39:17.816Z,17.6
2017-06-28T00:39:45.936Z,17.6
2017-06-28T00:40:14.078Z,17.57
2017-06-28T00:40:42.151Z,17.52
2017-06-28T00:41:10.305Z,17.59
2017-06-28T00:41:38.451Z,17.56
2017-06-28T00:42:06.621Z,17.6
2017-06-28T00:42:34.547Z,17.6
2017-06-28T00:43:02.695Z,17.59
2017-06-28T00:43:30.836Z,17.6
2017-06-28T00:43:58.928Z,17.5
2017-06-28T00:44:27.061Z,17.5
2017-06-28T00:44:55.224Z,17.54
2017-06-28T00:45:23.347Z,17.42
2017-06-28T00:45:51.514Z,17.44
2017-06-28T00:46:19.548Z,17.49
2017-06-28T00:46:47.692Z,17.44
2017-06-28T00:47:15.858Z,17.52
2017-06-28T00:47:43.986Z,17.38
2017-06-28T00:48:12.155Z,17.34
2017-06-28T00:48:40.260Z,17.37
2017-06-28T00:49:08.374Z,17.39
2017-06-28T00:49:36.507Z,17.49
2017-06-28T00:50:04.677Z,17.44
2017-06-28T00:50:32.791Z,17.38
2017-06-28T00:51:00.967Z,17.44
2017-06-28T00:51:28.983Z,17.46
2017-06-28T00:51:57.138Z,17.42
2017-06-28T00:52:25.270Z,17.42
2017-06-28T00:52:53.389Z,17.46
2017-06-28T00:53:21.523Z,17.44
2017-06-28T00:53:49.674Z,17.44
2017-06-28T00:54:17.847Z,17.5
2017-06-28T00:54:46.001Z,17.42
2017-06-28T00:55:14.144Z,17.52
2017-06-28T00:55:42.269Z,17.41
2017-06-28T00:56:10.417Z,17.42
2017-06-28T00:56:38.465Z,17.49
2017-06-28T00:57:06.615Z,17.46
2017-06-28T00:57:34.678Z,17.44
2017-06-28T00:58:02.811Z,17.42
2017-06-28T00:58:30.852Z,17.39
2017-06-28T00:58:58.984Z,17.37
2017-06-28T00:59:27.141Z,17.49
2017-06-28T00:59:55.294Z,17.35
2017-06-28T01:00:23.457Z,17.35
2017-06-28T01:00:51.583Z,17.37
2017-06-28T01:01:19.632Z,17.35
2017-06-28T01:01:47.783Z,17.35
2017-06-28T01:02:15.833Z,17.37
2017-06-28T01:02:43.997Z,17.37
2017-06-28T01:03:12.107Z,17.34
2017-06-28T01:03:40.246Z,17.32
2017-06-28T01:04:08.406Z,17.35
2017-06-28T01:04:36.469Z,17.35
2017-06-28T01:05:04.534Z,17.32
2017-06-28T01:05:32.570Z,17.32
2017-06-28T01:06:00.716Z,17.3
2017-06-28T01:06:28.777Z,17.38
2017-06-28T01:06:56.931Z,17.31
2017-06-28T01:07:25.067Z,17.34
2017-06-28T01:07:53.206Z,17.28
2017-06-28T01:08:21.348Z,17.24
2017-06-28T01:08:49.481Z,17.22
2017-06-28T01:09:17.641Z,17.22
2017-06-28T01:09:45.793Z,17.27
2017-06-28T01:10:13.813Z,17.23
2017-06-28T01:10:41.942Z,17.2
2017-06-28T01:11:10.068Z,17.24
2017-06-28T01:11:38.223Z,17.27
2017-06-28T01:12:06.417Z,17.2
2017-06-28T01:12:34.492Z,17.27
2017-06-28T01:13:02.635Z,17.27
2017-06-28T01:13:30.677Z,17.34
2017-06-28T01:13:58.816Z,17.31
2017-06-28T01:14:26.962Z,17.35
2017-06-28T01:14:55.097Z,17.3
2017-06-28T01:15:23.345Z,17.39
2017-06-28T01:15:52.570Z,17.35
2017-06-28T01:16:20.718Z,17.37
2017-06-28T01:16:48.825Z,17.31
2017-06-28T01:17:16.964Z,17.32
2017-06-28T01:17:45.108Z,17.38
2017-06-28T01:18:13.247Z,17.31
2017-06-28T01:18:41.293Z,17.31
2017-06-28T01:19:09.408Z,17.39
2017-06-28T01:19:37.562Z,17.3
2017-06-28T01:20:05.615Z,17.34
2017-06-28T01:20:33.752Z,17.32
2017-06-28T01:21:01.795Z,17.37
2017-06-28T01:21:29.906Z,17.35
2017-06-28T01:21:58.023Z,17.35
2017-06-28T01:22:26.158Z,17.35
2017-06-28T01:22:54.210Z,17.34
2017-06-28T01:23:22.369Z,17.37
2017-06-28T01:23:50.517Z,17.37
2017-06-28T01:24:18.658Z,17.34
2017-06-28T01:24:46.807Z,17.34
2017-06-28T01:25:14.947Z,17.31
2017-06-28T01:25:43.028Z,17.35
2017-06-28T01:26:11.168Z,17.27
2017-06-28T01:26:39.313Z,17.22
2017-06-28T01:27:07.369Z,17.31
2017-06-28T01:27:35.503Z,17.22
2017-06-28T01:28:03.649Z,17.31
2017-06-28T01:28:31.752Z,17.3
2017-06-28T01:28:59.865Z,17.27
2017-06-28T01:29:27.986Z,17.31
2017-06-28T01:29:56.113Z,17.24
2017-06-28T01:30:24.164Z,17.3
2017-06-28T01:30:52.318Z,17.34
2017-06-28T01:31:20.457Z,17.27
2017-06-28T01:31:48.585Z,17.39
2017-06-28T01:32:16.621Z,17.32
2017-06-28T01:32:44.647Z,17.28
2017-06-28T01:33:12.595Z,17.37
2017-06-28T01:33:40.746Z,17.31
2017-06-28T01:34:08.898Z,17.35
2017-06-28T01:34:36.927Z,17.32
2017-06-28T01:35:04.979Z,17.31
2017-06-28T01:35:33.130Z,17.28
2017-06-28T01:36:01.259Z,17.34
2017-06-28T01:36:29.400Z,17.38
2017-06-28T01:36:57.513Z,17.37
2017-06-28T01:37:25.659Z,17.31
2017-06-28T01:37:53.797Z,17.34
2017-06-28T01:38:21.944Z,17.31
2017-06-28T01:38:50.093Z,17.27
2017-06-28T01:39:18.122Z,17.31
2017-06-28T01:39:46.246Z,17.34
2017-06-28T01:40:14.350Z,17.34
2017-06-28T01:40:42.370Z,17.27
2017-06-28T01:41:10.429Z,17.32
2017-06-28T01:41:38.550Z,17.3
2017-06-28T01:42:06.694Z,17.32
2017-06-28T01:42:34.732Z,17.22
2017-06-28T01:43:02.852Z,17.19
2017-06-28T01:43:31.001Z,17.2
2017-06-28T01:43:59.057Z,17.23
2017-06-28T01:44:27.212Z,17.23
2017-06-28T01:44:55.357Z,17.17
2017-06-28T01:45:23.466Z,17.14
2017-06-28T01:45:51.599Z,17.13
2017-06-28T01:46:19.747Z,17.14
2017-06-28T01:46:47.820Z,17.09
2017-06-28T01:47:15.944Z,17.17
2017-06-28T01:47:44.058Z,17.1
2017-06-28T01:48:12.158Z,17.12
2017-06-28T01:48:40.302Z,17.13
2017-06-28T01:49:08.416Z,17.04
2017-06-28T01:49:36.577Z,17.1
2017-06-28T01:50:04.618Z,17.13
2017-06-28T01:50:32.657Z,17.01
2017-06-28T01:51:00.611Z,16.99
2017-06-28T01:51:28.704Z,17.02
2017-06-28T01:51:56.848Z,16.97
2017-06-28T01:52:24.964Z,17.07
2017-06-28T01:52:53.092Z,17.09
2017-06-28T01:53:21.229Z,17.05
2017-06-28T01:53:49.379Z,16.98
2017-06-28T01:54:17.516Z,16.99
2017-06-28T01:54:45.631Z,17.07
2017-06-28T01:55:13.665Z,16.98
2017-06-28T01:55:41.709Z,16.99
2017-06-28T01:56:09.878Z,16.97
2017-06-28T01:56:38.030Z,17.02
2017-06-28T01:57:06.191Z,16.98
2017-06-28T01:57:34.335Z,16.98
2017-06-28T01:58:02.458Z,16.99
2017-06-28T01:58:30.574Z,16.97
2017-06-28T01:58:58.582Z,16.97
2017-06-28T01:59:26.620Z,16.97
2017-06-28T01:59:54.574Z,16.99
2017-06-28T02:00:22.728Z,16.97
2017-06-28T02:00:50.755Z,16.99
2017-06-28T02:01:18.694Z,16.97
2017-06-28T02:01:46.801Z,16.95
2017-06-28T02:02:14.735Z,16.92
2017-06-28T02:02:42.869Z,16.91
2017-06-28T02:03:10.899Z,16.99
2017-06-28T02:03:39.003Z,16.83
2017-06-28T02:04:07.136Z,16.84
2017-06-28T02:04:35.271Z,16.86
2017-06-28T02:05:03.397Z,16.83
2017-06-28T02:05:31.552Z,16.86
2017-06-28T02:05:59.500Z,16.82
2017-06-28T02:06:27.622Z,16.8
2017-06-28T02:06:55.683Z,16.8
2017-06-28T02:07:23.713Z,16.8
2017-06-28T02:07:51.837Z,16.73
2017-06-28T02:08:19.939Z,16.76
2017-06-28T02:08:47.974Z,16.74
2017-06-28T02:09:16.107Z,16.73
2017-06-28T02:09:44.137Z,16.76
2017-06-28T02:10:12.253Z,16.79
2017-06-28T02:10:40.375Z,16.79
2017-06-28T02:11:08.418Z,16.76
2017-06-28T02:11:36.550Z,16.79
2017-06-28T02:12:04.687Z,16.72
2017-06-28T02:12:32.821Z,16.69
2017-06-28T02:13:00.950Z,16.72
2017-06-28T02:13:29.093Z,16.68
2017-06-28T02:13:57.226Z,16.73
2017-06-28T02:14:25.377Z,16.72
2017-06-28T02:14:53.503Z,16.79
2017-06-28T02:15:21.621Z,16.72
2017-06-28T02:15:49.769Z,16.76
2017-06-28T02:16:17.826Z,16.74
2017-06-28T02:16:45.874Z,16.73
2017-06-28T02:17:14.017Z,16.73
2017-06-28T02:17:42.147Z,16.74
2017-06-28T02:18:10.406Z,16.79
2017-06-28T02:18:38.536Z,16.8
2017-06-28T02:19:06.683Z,16.8
2017-06-28T02:19:34.832Z,16.76
2017-06-28T02:20:02.981Z,16.86
2017-06-28T02:20:31.123Z,16.8
2017-06-28T02:20:59.164Z,16.79
2017-06-28T02:21:27.265Z,16.84
2017-06-28T02:21:55.395Z,16.79
2017-06-28T02:22:23.519Z,16.74
2017-06-28T02:22:51.659Z,16.74
2017-06-28T02:23:19.695Z,16.73
2017-06-28T02:23:47.839Z,16.72
2017-06-28T02:24:15.960Z,16.72
2017-06-28T02:24:44.134Z,16.66
2017-06-28T02:25:12.176Z,16.66
2017-06-28T02:25:40.298Z,16.73
2017-06-28T02:26:08.434Z,16.69
2017-06-28T02:26:36.573Z,16.72
2017-06-28T02:27:04.684Z,16.68
2017-06-28T02:27:32.826Z,16.73
2017-06-28T02:28:00.940Z,16.72
2017-06-28T02:28:29.072Z,16.69
2017-06-28T02:28:57.204Z,16.79
2017-06-28T02:29:25.319Z,16.68
2017-06-28T02:29:53.469Z,16.66
2017-06-28T02:30:21.427Z,16.68
2017-06-28T02:30:49.534Z,16.68
2017-06-28T02:31:17.577Z,16.73
2017-06-28T02:31:45.613Z,16.66
2017-06-28T02:32:13.706Z,16.65
2017-06-28T02:32:41.724Z,16.65
2017-06-28T02:33:09.787Z,16.62
2017-06-28T02:33:37.830Z,16.72
2017-06-28T02:34:05.865Z,16.65
2017-06-28T02:34:33.891Z,16.62
2017-06-28T02:35:02.030Z,16.61
2017-06-28T02:35:30.202Z,16.59
2017-06-28T02:35:58.323Z,16.65
2017-06-28T02:36:26.440Z,16.66
2017-06-28T02:36:54.585Z,16.57
2017-06-28T02:37:22.717Z,16.58
2017-06-28T02:37:50.843Z,16.57
2017-06-28T02:38:18.886Z,16.65
2017-06-28T02:38:47.025Z,16.61
2017-06-28T02:39:15.157Z,16.64
2017-06-28T02:39:43.176Z,16.59
2017-06-28T02:40:11.195Z,16.58
2017-06-28T02:40:39.323Z,16.65
2017-06-28T02:41:07.586Z,16.51
2017-06-28T02:41:35.599Z,16.58
2017-06-28T02:42:03.722Z,16.58
2017-06-28T02:42:31.848Z,16.59
2017-06-28T02:42:59.876Z,16.62
2017-06-28T02:43:27.993Z,16.58
2017-06-28T02:43:56.121Z,16.55
2017-06-28T02:44:24.168Z,16.57
2017-06-28T02:44:52.314Z,16.65
2017-06-28T02:45:20.464Z,16.61
2017-06-28T02:45:48.615Z,16.55
2017-06-28T02:46:16.653Z,16.49
2017-06-28T02:46:44.760Z,16.58
2017-06-28T02:47:12.906Z,16.51
2017-06-28T02:47:41.031Z,16.57
2017-06-28T02:48:09.070Z,16.51
2017-06-28T02:48:37.220Z,16.58
2017-06-28T02:49:05.365Z,16.51
2017-06-28T02:49:33.506Z,16.43
2017-06-28T02:50:01.642Z,16.55
2017-06-28T02:50:29.797Z,16.49
2017-06-28T02:50:57.844Z,16.47
2017-06-28T02:51:25.981Z,16.5
2017-06-28T02:51:54.018Z,16.54
2017-06-28T02:52:22.172Z,16.41
2017-06-28T02:52:50.322Z,16.57
2017-06-28T02:53:18.403Z,16.43
2017-06-28T02:53:46.524Z,16.51
2017-06-28T02:54:14.690Z,16.41
2017-06-28T02:54:42.736Z,16.39
2017-06-28T02:55:10.888Z,16.41
2017-06-28T02:55:39.039Z,16.43
2017-06-28T02:56:07.159Z,16.51
2017-06-28T02:56:35.294Z,16.51
2017-06-28T02:57:03.420Z,16.58
2017-06-28T02:57:31.570Z,16.46
2017-06-28T02:57:59.697Z,16.51
2017-06-28T02:58:27.851Z,16.57
2017-06-28T02:58:55.966Z,16.58
2017-06-28T02:59:24.112Z,16.44
2017-06-28T02:59:52.231Z,16.41
2017-06-28T03:00:20.277Z,16.47
2017-06-28T03:00:48.416Z,16.46
2017-06-28T03:01:16.455Z,16.49
2017-06-28T03:01:44.517Z,16.44
2017-06-28T03:02:12.654Z,16.46
2017-06-28T03:02:40.780Z,16.46
2017-06-28T03:03:08.924Z,16.37
2017-06-28T03:03:36.963Z,16.47
2017-06-28T03:04:04.981Z,16.44
2017-06-28T03:04:33.123Z,16.41
2017-06-28T03:05:01.170Z,16.4
2017-06-28T03:05:29.298Z,16.5
2017-06-28T03:05:57.426Z,16.43
2017-06-28T03:06:25.592Z,16.4
2017-06-28T03:06:53.717Z,16.49
2017-06-28T03:07:21.854Z,16.41
2017-06-28T03:07:49.877Z,16.47
2017-06-28T03:08:18.000Z,16.4
2017-06-28T03:08:46.129Z,16.39
2017-06-28T03:09:14.273Z,16.37
2017-06-28T03:09:42.391Z,16.44
2017-06-28T03:10:10.452Z,16.44
2017-06-28T03:10:38.579Z,16.43
2017-06-28T03:11:06.646Z,16.44
2017-06-28T03:11:34.754Z,16.47
2017-06-28T03:12:02.866Z,16.4
2017-06-28T03:12:30.998Z,16.44
2017-06-28T03:12:59.139Z,16.44
2017-06-28T03:13:27.080Z,16.47
2017-06-28T03:13:55.200Z,16.43
2017-06-28T03:14:23.345Z,16.49
2017-06-28T03:14:51.487Z,16.41
2017-06-28T03:15:19.510Z,16.47
2017-06-28T03:15:47.655Z,16.37
2017-06-28T03:16:15.797Z,16.46
2017-06-28T03:16:43.928Z,16.41
2017-06-28T03:17:11.980Z,16.39
2017-06-28T03:17:40.035Z,16.43
2017-06-28T03:18:08.172Z,16.41
2017-06-28T03:18:36.305Z,16.37
2017-06-28T03:19:04.411Z,16.32
2017-06-28T03:19:32.546Z,16.36
2017-06-28T03:20:00.568Z,16.37
2017-06-28T03:20:28.590Z,16.32
2017-06-28T03:20:56.643Z,16.29
2017-06-28T03:21:24.779Z,16.29
2017-06-28T03:21:52.935Z,16.31
2017-06-28T03:22:21.096Z,16.4
2017-06-28T03:22:49.229Z,16.31
2017-06-28T03:23:17.351Z,16.31
2017-06-28T03:23:45.382Z,16.32
2017-06-28T03:24:13.429Z,16.29
2017-06-28T03:24:41.552Z,16.32
2017-06-28T03:25:09.587Z,16.31
2017-06-28T03:25:37.741Z,16.25
2017-06-28T03:26:05.884Z,16.28
2017-06-28T03:26:34.033Z,16.31
2017-06-28T03:27:02.063Z,16.31
2017-06-28T03:27:30.193Z,16.24
2017-06-28T03:27:58.322Z,16.31
2017-06-28T03:28:26.443Z,16.18
2017-06-28T03:28:54.580Z,16.26
2017-06-28T03:29:22.702Z,16.26
2017-06-28T03:29:50.729Z,16.22
2017-06-28T03:30:18.860Z,16.22
2017-06-28T03:30:46.976Z,16.25
2017-06-28T03:31:15.134Z,16.21
2017-06-28T03:31:43.279Z,16.22
2017-06-28T03:32:11.331Z,16.09
2017-06-28T03:32:39.344Z,16.13
2017-06-28T03:33:07.481Z,16.24
2017-06-28T03:33:35.590Z,16.13
2017-06-28T03:34:03.730Z,16.09
2017-06-28T03:34:31.874Z,16.12
2017-06-28T03:35:00.013Z,16.12
2017-06-28T03:35:28.153Z,16.06
2017-06-28T03:35:56.286Z,16.06
2017-06-28T03:36:24.334Z,16
2017-06-28T03:36:52.435Z,15.98
2017-06-28T03:37:20.578Z,16
2017-06-28T03:37:48.702Z,15.99
2017-06-28T03:38:16.845Z,16.03
2017-06-28T03:38:44.976Z,15.99
2017-06-28T03:39:13.108Z,16.03
2017-06-28T03:39:41.247Z,16.05
2017-06-28T03:40:09.408Z,16.05
2017-06-28T03:40:37.526Z,16.03
2017-06-28T03:41:05.646Z,16.02
2017-06-28T03:41:33.769Z,16.06
2017-06-28T03:42:01.805Z,16.02
2017-06-28T03:42:29.957Z,15.9
2017-06-28T03:42:58.116Z,15.94
2017-06-28T03:43:26.153Z,15.92
2017-06-28T03:43:54.273Z,15.91
2017-06-28T03:44:22.399Z,15.87
2017-06-28T03:44:50.508Z,15.87
2017-06-28T03:45:18.530Z,15.9
2017-06-28T03:45:46.667Z,15.98
2017-06-28T03:46:14.801Z,15.81
2017-06-28T03:46:42.842Z,15.81
2017-06-28T03:47:10.962Z,15.85
2017-06-28T03:47:39.000Z,15.78
2017-06-28T03:48:07.164Z,15.76
2017-06-28T03:48:35.206Z,15.78
2017-06-28T03:49:03.323Z,15.81
2017-06-28T03:49:31.456Z,15.78
2017-06-28T03:49:59.593Z,15.76
2017-06-28T03:50:27.749Z,15.78
2017-06-28T03:50:55.907Z,15.75
2017-06-28T03:51:24.055Z,15.8
2017-06-28T03:51:52.192Z,15.78
2017-06-28T03:52:20.328Z,15.73
2017-06-28T03:52:48.457Z,15.69
2017-06-28T03:53:16.498Z,15.72
2017-06-28T03:53:44.556Z,15.73
2017-06-28T03:54:12.691Z,15.75
2017-06-28T03:54:40.800Z,15.75
2017-06-28T03:55:08.944Z,15.76
2017-06-28T03:55:37.070Z,15.69
2017-06-28T03:56:05.217Z,15.72
2017-06-28T03:56:33.265Z,15.73
2017-06-28T03:57:01.317Z,15.7
2017-06-28T03:57:29.364Z,15.73
2017-06-28T03:57:57.502Z,15.69
2017-06-28T03:58:25.527Z,15.72
2017-06-28T03:58:53.565Z,15.72
2017-06-28T03:59:21.708Z,15.76
2017-06-28T03:59:49.835Z,15.73
2017-06-28T04:00:17.865Z,15.69
2017-06-28T04:00:47.392Z,15.7
2017-06-28T04:01:15.530Z,15.73
2017-06-28T04:01:43.583Z,15.69
2017-06-28T04:02:11.732Z,15.67
2017-06-28T04:02:39.695Z,15.72
2017-06-28T04:03:07.727Z,15.73
2017-06-28T04:03:35.786Z,15.65
2017-06-28T04:04:03.826Z,15.66
2017-06-28T04:04:31.921Z,15.63
2017-06-28T04:05:00.033Z,15.6
2017-06-28T04:05:28.070Z,15.65
2017-06-28T04:05:56.302Z,15.6
2017-06-28T04:06:24.345Z,15.69
2017-06-28T04:06:52.279Z,15.66
2017-06-28T04:07:20.314Z,15.67
2017-06-28T04:07:48.699Z,15.65
2017-06-28T04:08:16.747Z,15.62
2017-06-28T04:08:44.863Z,15.67
2017-06-28T04:09:13.011Z,15.6
2017-06-28T04:09:41.133Z,15.66
2017-06-28T04:10:09.173Z,15.62
2017-06-28T04:10:37.319Z,15.6
2017-06-28T04:11:05.450Z,15.65
2017-06-28T04:11:33.595Z,15.62
2017-06-28T04:12:01.745Z,15.72
2017-06-28T04:12:29.884Z,15.69
2017-06-28T04:12:58.029Z,15.6
2017-06-28T04:13:26.172Z,15.57
2017-06-28T04:13:54.303Z,15.72
2017-06-28T04:14:22.442Z,15.62
2017-06-28T04:14:50.593Z,15.76
2017-06-28T04:15:18.712Z,15.6
2017-06-28T04:15:46.851Z,15.62
2017-06-28T04:16:14.989Z,15.66
2017-06-28T04:16:43.126Z,15.7
2017-06-28T04:17:11.203Z,15.66
2017-06-28T04:17:39.334Z,15.62
2017-06-28T04:18:07.488Z,15.62
2017-06-28T04:18:35.611Z,15.65
2017-06-28T04:19:03.742Z,15.55
2017-06-28T04:19:31.866Z,15.65
2017-06-28T04:19:59.980Z,15.59
2017-06-28T04:20:28.133Z,15.57
2017-06-28T04:20:56.176Z,15.52
2017-06-28T04:21:24.326Z,15.55
2017-06-28T04:21:52.442Z,15.55
2017-06-28T04:22:20.470Z,15.57
2017-06-28T04:22:48.601Z,15.51
2017-06-28T04:23:16.710Z,15.54
2017-06-28T04:23:44.867Z,15.54
2017-06-28T04:24:12.994Z,15.54
2017-06-28T04:24:41.032Z,15.62
2017-06-28T04:25:09.158Z,15.55
2017-06-28T04:25:37.299Z,15.62
2017-06-28T04:26:05.424Z,15.55
2017-06-28T04:26:33.549Z,15.54
2017-06-28T04:27:01.664Z,15.6
2017-06-28T04:27:29.689Z,15.51
2017-06-28T04:27:57.823Z,15.51
2017-06-28T04:28:25.975Z,15.57
2017-06-28T04:28:54.092Z,15.51
2017-06-28T04:29:22.233Z,15.54
2017-06-28T04:29:50.388Z,15.54
2017-06-28T04:30:18.535Z,15.57
2017-06-28T04:30:46.557Z,15.54
2017-06-28T04:31:14.710Z,15.57
2017-06-28T04:31:42.858Z,15.59
2017-06-28T04:32:11.003Z,15.62
2017-06-28T04:32:39.122Z,15.6
2017-06-28T04:33:07.245Z,15.57
2017-06-28T04:33:35.353Z,15.54
2017-06-28T04:34:03.499Z,15.57
2017-06-28T04:34:31.526Z,15.59
2017-06-28T04:34:59.638Z,15.57
2017-06-28T04:35:27.706Z,15.54
2017-06-28T04:35:55.858Z,15.54
2017-06-28T04:36:23.981Z,15.52
2017-06-28T04:36:52.089Z,15.47
2017-06-28T04:37:20.162Z,15.45
2017-06-28T04:37:48.309Z,15.45
2017-06-28T04:38:16.442Z,15.48
2017-06-28T04:38:44.600Z,15.44
2017-06-28T04:39:12.763Z,15.44
2017-06-28T04:39:40.937Z,15.45
2017-06-28T04:40:09.070Z,15.47
2017-06-28T04:40:37.199Z,15.51
2017-06-28T04:41:05.256Z,15.39
2017-06-28T04:41:33.290Z,15.36
2017-06-28T04:42:01.429Z,15.5
2017-06-28T04:42:29.581Z,15.44
2017-06-28T04:42:57.725Z,15.39
2017-06-28T04:43:25.889Z,15.44
2017-06-28T04:43:54.024Z,15.48
2017-06-28T04:44:22.152Z,15.48
2017-06-28T04:44:50.196Z,15.44
2017-06-28T04:45:18.317Z,15.44
2017-06-28T04:45:46.355Z,15.44
2017-06-28T04:46:14.476Z,15.37
2017-06-28T04:46:42.502Z,15.45
2017-06-28T04:47:10.542Z,15.39
2017-06-28T04:47:38.593Z,15.41
2017-06-28T04:48:06.705Z,15.41
2017-06-28T04:48:34.846Z,15.36
2017-06-28T04:49:02.979Z,15.35
2017-06-28T04:49:30.841Z,15.41
2017-06-28T04:49:58.976Z,15.37
2017-06-28T04:50:27.110Z,15.37
2017-06-28T04:50:55.136Z,15.36
2017-06-28T04:51:23.094Z,15.3
2017-06-28T04:51:51.234Z,15.33
2017-06-28T04:52:19.400Z,15.3
2017-06-28T04:52:47.449Z,15.3
2017-06-28T04:53:15.587Z,15.27
2017-06-28T04:53:43.754Z,15.33
2017-06-28T04:54:11.804Z,15.27
2017-06-28T04:54:39.927Z,15.29
2017-06-28T04:55:08.055Z,15.33
2017-06-28T04:55:36.195Z,15.27
2017-06-28T04:56:04.132Z,15.3
2017-06-28T04:56:32.274Z,15.3
2017-06-28T04:57:00.321Z,15.23
2017-06-28T04:57:28.446Z,15.3
2017-06-28T04:57:56.369Z,15.19
2017-06-28T04:58:24.509Z,15.19
2017-06-28T04:58:52.538Z,15.19
2017-06-28T04:59:20.699Z,15.23
2017-06-28T04:59:48.841Z,15.25
2017-06-28T05:00:16.985Z,15.33
2017-06-28T05:00:45.099Z,15.26
2017-06-28T05:01:13.280Z,15.32
2017-06-28T05:01:41.383Z,15.33
2017-06-28T05:02:09.538Z,15.26
2017-06-28T05:02:37.674Z,15.23
2017-06-28T05:03:05.824Z,15.25
2017-06-28T05:03:33.963Z,15.26
2017-06-28T05:04:02.081Z,15.29
2017-06-28T05:04:30.245Z,15.26
2017-06-28T05:04:58.210Z,15.35
2017-06-28T05:05:26.344Z,15.26
2017-06-28T05:05:54.470Z,15.33
2017-06-28T05:06:22.599Z,15.3
2017-06-28T05:06:50.729Z,15.29
2017-06-28T05:07:18.890Z,15.35
2017-06-28T05:07:47.029Z,15.29
2017-06-28T05:08:15.174Z,15.35
2017-06-28T05:08:43.287Z,15.29
2017-06-28T05:09:11.418Z,15.3
2017-06-28T05:09:39.572Z,15.32
2017-06-28T05:10:07.701Z,15.36
2017-06-28T05:10:35.821Z,15.36
2017-06-28T05:11:03.941Z,15.37
2017-06-28T05:11:32.072Z,15.35
2017-06-28T05:12:00.124Z,15.39
2017-06-28T05:12:28.257Z,15.37
2017-06-28T05:12:56.295Z,15.41
2017-06-28T05:13:24.428Z,15.33
2017-06-28T05:13:52.577Z,15.33
2017-06-28T05:14:20.713Z,15.41
2017-06-28T05:14:48.855Z,15.43
2017-06-28T05:15:16.973Z,15.36
2017-06-28T05:15:45.109Z,15.44
2017-06-28T05:16:13.148Z,15.44
2017-06-28T05:16:41.274Z,15.47
2017-06-28T05:17:09.385Z,15.37
2017-06-28T05:17:37.503Z,15.36
2017-06-28T05:18:05.647Z,15.37
2017-06-28T05:18:33.733Z,15.44
2017-06-28T05:19:01.880Z,15.43
2017-06-28T05:19:30.043Z,15.39
2017-06-28T05:19:58.188Z,15.33
2017-06-28T05:20:26.319Z,15.27
2017-06-28T05:20:54.446Z,15.32
2017-06-28T05:21:22.491Z,15.32
2017-06-28T05:21:50.617Z,15.33
2017-06-28T05:22:18.772Z,15.29
2017-06-28T05:22:46.909Z,15.19
2017-06-28T05:23:15.018Z,15.17
2017-06-28T05:23:43.153Z,15.19
2017-06-28T05:24:11.298Z,15.19
2017-06-28T05:24:39.417Z,15.18
2017-06-28T05:25:07.575Z,15.19
2017-06-28T05:25:35.700Z,15.26
2017-06-28T05:26:03.832Z,15.19
2017-06-28T05:26:31.982Z,15.22
2017-06-28T05:27:00.000Z,15.23
2017-06-28T05:27:28.143Z,15.25
2017-06-28T05:27:56.259Z,15.18
2017-06-28T05:28:24.395Z,15.17
2017-06-28T05:28:52.532Z,15.23
2017-06-28T05:29:20.574Z,15.17
2017-06-28T05:29:48.703Z,15.23
2017-06-28T05:30:16.841Z,15.18
2017-06-28T05:30:44.979Z,15.15
2017-06-28T05:31:13.038Z,15.23
2017-06-28T05:31:41.102Z,15.11
2017-06-28T05:32:09.247Z,15.22
2017-06-28T05:32:37.332Z,15.12
2017-06-28T05:33:05.501Z,15.18
2017-06-28T05:33:33.640Z,15.15
2017-06-28T05:34:01.786Z,15.08
2017-06-28T05:34:29.913Z,15.11
2017-06-28T05:34:58.049Z,15.14
2017-06-28T05:35:26.156Z,15.15
2017-06-28T05:35:54.189Z,15.1
2017-06-28T05:36:22.326Z,15.05
2017-06-28T05:36:50.452Z,15.08
2017-06-28T05:37:18.505Z,14.99
2017-06-28T05:37:46.636Z,15.08
2017-06-28T05:38:14.786Z,15.1
2017-06-28T05:38:42.834Z,15.05
2017-06-28T05:39:10.880Z,15.11
2017-06-28T05:39:38.948Z,15.1
2017-06-28T05:40:06.984Z,15.1
2017-06-28T05:40:35.139Z,15.08
2017-06-28T05:41:03.260Z,15.05
2017-06-28T05:41:31.328Z,15.07
2017-06-28T05:41:59.482Z,15.07
2017-06-28T05:42:27.520Z,15.1
2017-06-28T05:42:55.631Z,15.1
2017-06-28T05:43:23.761Z,15.08
2017-06-28T05:43:51.905Z,15.11
2017-06-28T05:44:20.065Z,15.07
2017-06-28T05:44:48.201Z,15.1
2017-06-28T05:45:16.249Z,15.07
2017-06-28T05:45:44.289Z,15.1
2017-06-28T05:46:12.428Z,15.07
2017-06-28T05:46:40.392Z,15.1
2017-06-28T05:47:08.522Z,15.1
2017-06-28T05:47:36.451Z,15.04
2017-06-28T05:48:04.408Z,15.11
2017-06-28T05:48:32.571Z,15.11
2017-06-28T05:49:00.697Z,15.07
2017-06-28T05:49:28.805Z,15.14
2017-06-28T05:49:56.939Z,15.04
2017-06-28T05:50:25.083Z,15.08
2017-06-28T05:50:53.258Z,15.08
2017-06-28T05:51:21.401Z,15.07
2017-06-28T05:51:49.551Z,15.11
2017-06-28T05:52:17.572Z,15.05
2017-06-28T05:52:45.622Z,15.07
2017-06-28T05:53:13.724Z,15.11
2017-06-28T05:53:41.778Z,15.08
2017-06-28T05:54:09.903Z,15.07
2017-06-28T05:54:38.027Z,15.11
2017-06-28T05:55:06.073Z,15.05
2017-06-28T05:55:34.125Z,15.07
2017-06-28T05:56:02.267Z,15.12
2017-06-28T05:56:30.415Z,15.11
2017-06-28T05:56:58.548Z,14.99
2017-06-28T05:57:26.714Z,15.04
2017-06-28T05:57:54.874Z,14.99
2017-06-28T05:58:22.805Z,15
2017-06-28T05:58:50.933Z,14.96
2017-06-28T05:59:19.092Z,14.96
2017-06-28T05:59:47.155Z,14.96
2017-06-28T06:00:15.385Z,14.97
2017-06-28T06:00:43.420Z,14.99
2017-06-28T06:01:11.681Z,15.02
2017-06-28T06:01:39.833Z,15.04
2017-06-28T06:02:07.988Z,15.04
2017-06-28T06:02:36.108Z,15.04
2017-06-28T06:03:04.235Z,14.93
2017-06-28T06:03:32.357Z,15.04